Time;durP1;ratioP1;P1;durP2;ratioP2;P2;SDS_P1;SDS_P2;PMS_P1;PMS_P2;Temp;Humidity;BMP_temperature;BMP_pressure;BME280_temperature;BME280_humidity;BME280_pressure;Samples;Min_cycle;Max_cycle;Signal;HPM_P1;HPM_P2
2021/05/29 08:01:51;;;;;;;3.75;1.00;;;14.80;62.30;;;;;;5269977;24;20026;-84
2021/05/29 08:04:18;;;;;;;2.53;1.30;;;15.00;59.80;;;;;;4821503;29;20046;-84
2021/05/29 08:06:45;;;;;;;1.77;0.73;;;15.20;59.00;;;;;;4814368;29;20129;-85
2021/05/29 08:09:13;;;;;;;2.05;1.00;;;15.30;60.60;;;;;;4816977;29;20111;-85
2021/05/29 08:11:43;;;;;;;3.13;0.63;;;15.40;57.10;;;;;;4826909;29;20057;-87
2021/05/29 08:14:11;;;;;;;1.70;0.80;;;15.60;56.80;;;;;;4831443;29;20085;-87
2021/05/29 08:16:40;;;;;;;1.23;0.60;;;15.70;55.90;;;;;;4825338;29;20429;-87
2021/05/29 08:19:12;;;;;;;2.25;0.60;;;16.00;55.00;;;;;;4812684;29;20065;-86
2021/05/29 08:21:40;;;;;;;1.67;0.80;;;16.10;54.30;;;;;;4813375;29;20060;-86
2021/05/29 08:24:09;;;;;;;2.05;0.40;;;16.40;52.50;;;;;;4829845;29;20043;-87
2021/05/29 08:26:36;;;;;;;1.73;0.60;;;16.60;52.00;;;;;;4831112;29;20062;-86
2021/05/29 08:29:04;;;;;;;1.17;0.50;;;16.80;52.60;;;;;;4830708;29;20070;-87
2021/05/29 08:31:36;;;;;;;2.00;0.65;;;17.00;49.70;;;;;;4830900;29;20055;-85
2021/05/29 08:34:09;;;;;;;2.22;0.52;;;17.30;48.90;;;;;;4799315;29;20118;-86
2021/05/29 08:36:39;;;;;;;1.25;0.60;;;17.70;47.80;;;;;;4834067;29;20342;-87
2021/05/29 08:39:08;;;;;;;2.58;1.00;;;18.10;47.70;;;;;;4818283;29;20160;-85
2021/05/29 08:41:36;;;;;;;1.75;0.80;;;18.30;46.30;;;;;;4835530;29;20276;-87
2021/05/29 08:44:04;;;;;;;3.60;0.77;;;18.20;43.60;;;;;;4817556;29;20072;-86
2021/05/29 08:46:31;;;;;;;0.63;0.38;;;18.00;45.10;;;;;;4819353;29;20207;-84
2021/05/29 08:48:59;;;;;;;1.70;0.50;;;18.10;46.50;;;;;;4817001;29;20241;-87
2021/05/29 08:51:27;;;;;;;1.75;0.57;;;18.10;45.00;;;;;;4831617;29;20319;-85
2021/05/29 08:53:56;;;;;;;4.13;1.35;;;18.20;45.20;;;;;;4832041;29;20050;-86
2021/05/29 08:56:26;;;;;;;1.80;0.90;;;18.20;45.80;;;;;;4816464;29;20058;-86
2021/05/29 08:58:55;;;;;;;0.82;0.45;;;18.20;45.50;;;;;;4833617;29;20062;-85
2021/05/29 09:01:24;;;;;;;5.60;0.97;;;18.50;46.20;;;;;;4829200;29;20070;-85
2021/05/29 09:03:54;;;;;;;1.48;0.50;;;18.60;46.00;;;;;;4815328;29;20126;-87
2021/05/29 09:06:41;;;;;;;3.15;0.77;;;18.60;45.50;;;;;;2981565;29;10002172;-86
2021/05/29 09:09:10;;;;;;;1.77;0.40;;;18.40;46.20;;;;;;2815155;29;10002048;-85
2021/05/29 09:11:45;;;;;;;2.92;0.55;;;18.40;45.00;;;;;;4809658;29;20071;-87
2021/05/29 09:14:35;;;;;;;1.27;0.60;;;18.10;47.20;;;;;;4832164;29;20070;-85
2021/05/29 09:17:09;;;;;;;1.10;0.40;;;17.90;46.90;;;;;;4819089;29;20122;-86
2021/05/29 09:19:57;;;;;;;0.75;0.40;;;18.40;44.60;;;;;;4833184;29;20262;-86
2021/05/29 09:22:27;;;;;;;0.90;0.40;;;18.60;44.20;;;;;;4827747;29;20050;-86
2021/05/29 09:25:08;;;;;;;1.15;0.50;;;18.60;43.90;;;;;;4833759;29;20042;-86
2021/05/29 09:27:36;;;;;;;1.77;0.73;;;18.70;45.10;;;;;;4811024;29;20070;-86
2021/05/29 09:30:13;;;;;;;2.97;1.02;;;18.90;43.40;;;;;;4814645;29;20053;-86
2021/05/29 09:32:40;;;;;;;1.00;0.45;;;19.10;42.50;;;;;;4822724;29;20058;-86
2021/05/29 09:35:10;;;;;;;1.17;0.40;;;19.00;43.10;;;;;;4832082;29;20062;-85
2021/05/29 09:37:38;;;;;;;1.95;0.60;;;18.90;44.00;;;;;;4834588;29;20050;-85
2021/05/29 09:40:09;;;;;;;3.10;1.02;;;19.00;43.30;;;;;;4835931;29;20080;-85
2021/05/29 09:42:39;;;;;;;2.40;0.88;;;18.90;42.20;;;;;;4833376;29;20069;-86
2021/05/29 09:45:22;;;;;;;1.45;0.52;;;18.70;43.10;;;;;;4834838;29;20058;-86
2021/05/29 09:48:13;;;;;;;1.58;0.68;;;18.90;43.40;;;;;;4829090;29;20059;-87
2021/05/29 09:50:58;;;;;;;1.48;0.80;;;19.00;41.90;;;;;;4835752;29;20356;-87
2021/05/29 09:53:27;;;;;;;2.03;0.50;;;18.90;42.10;;;;;;4835799;29;20050;-86
2021/05/29 09:55:55;;;;;;;1.08;0.47;;;19.10;42.10;;;;;;4819994;29;20059;-86
2021/05/29 09:58:43;;;;;;;10.40;1.33;;;19.30;39.30;;;;;;4832730;29;20062;-85
2021/05/29 10:01:10;;;;;;;3.40;1.20;;;19.40;41.30;;;;;;4810563;29;20054;-86
2021/05/29 10:03:47;;;;;;;2.80;1.20;;;19.60;40.90;;;;;;4834898;29;20138;-85
2021/05/29 10:06:15;;;;;;;3.33;0.70;;;19.50;41.50;;;;;;4826381;29;20066;-84
2021/05/29 10:08:42;;;;;;;1.60;0.60;;;19.20;40.10;;;;;;4837322;29;20077;-86
2021/05/29 10:11:13;;;;;;;2.13;0.50;;;19.10;42.40;;;;;;4829820;29;20291;-85
2021/05/29 10:13:40;;;;;;;1.27;0.73;;;19.80;41.50;;;;;;4828989;29;20086;-86
2021/05/29 10:16:11;;;;;;;0.93;0.40;;;20.80;38.20;;;;;;4811124;29;20057;-85
2021/05/29 10:18:41;;;;;;;4.13;0.65;;;21.50;36.90;;;;;;4834247;29;20057;-85
2021/05/29 10:21:10;;;;;;;0.77;0.47;;;22.30;37.30;;;;;;4832211;29;20074;-87
2021/05/29 10:23:38;;;;;;;1.05;0.47;;;23.60;35.90;;;;;;4819480;29;20054;-86
2021/05/29 10:26:05;;;;;;;2.25;0.60;;;24.70;34.50;;;;;;4819441;29;20061;-86
2021/05/29 10:28:34;;;;;;;1.05;0.60;;;25.60;32.00;;;;;;4826475;29;20047;-86
2021/05/29 10:31:01;;;;;;;1.27;0.47;;;26.20;32.40;;;;;;4804921;29;20497;-87
2021/05/29 10:33:40;;;;;;;1.95;0.68;;;26.50;30.40;;;;;;4831021;29;20058;-85
2021/05/29 10:36:08;;;;;;;1.30;0.57;;;26.90;29.00;;;;;;4813128;29;20110;-87
2021/05/29 10:38:49;;;;;;;3.92;0.60;;;25.70;31.60;;;;;;4813342;29;20062;-87
2021/05/29 10:41:49;;;;;;;1.00;0.60;;;24.10;31.90;;;;;;4832332;29;20062;-87
2021/05/29 10:44:39;;;;;;;0.70;0.40;;;22.90;35.30;;;;;;4823678;29;20047;-89
2021/05/29 10:47:10;;;;;;;;;;;22.80;34.90;;;;;;4814968;29;20065;-87
2021/05/29 10:49:52;;;;;;;1.00;0.50;;;25.80;31.80;;;;;;4832648;29;19977;-85
2021/05/29 10:52:49;;;;;;;1.65;0.70;;;25.50;32.40;;;;;;4810696;29;20043;-87
2021/05/29 10:55:28;;;;;;;3.25;0.68;;;26.40;32.10;;;;;;4830970;29;20062;-89
2021/05/29 10:58:01;;;;;;;1.65;0.68;;;28.00;30.10;;;;;;4814876;29;20058;-87
2021/05/29 11:00:52;;;;;;;2.15;0.50;;;27.20;31.30;;;;;;4826549;29;20065;-85
2021/05/29 11:03:28;;;;;;;;;;;28.00;29.00;;;;;;4811984;29;20099;-83
2021/05/29 11:05:59;;;;;;;4.13;0.90;;;26.50;30.60;;;;;;4815780;29;19928;-87
2021/05/29 11:08:47;;;;;;;1.17;0.40;;;26.20;30.00;;;;;;4811515;29;20057;-86
2021/05/29 11:11:52;;;;;;;1.23;0.43;;;28.30;27.60;;;;;;4808453;29;20070;-84
2021/05/29 11:14:23;;;;;;;0.80;0.47;;;29.60;25.80;;;;;;4815784;29;20068;-86
2021/05/29 11:17:13;;;;;;;4.43;1.35;;;30.20;24.40;;;;;;4831610;29;20054;-84
2021/05/29 11:19:42;;;;;;;1.73;0.50;;;31.10;22.20;;;;;;4817677;29;20066;-87
2021/05/29 11:22:13;;;;;;;0.93;0.35;;;31.80;22.20;;;;;;4830806;29;20257;-87
2021/05/29 11:24:42;;;;;;;0.95;0.65;;;32.10;22.00;;;;;;4807241;29;20062;-85
2021/05/29 11:27:14;;;;;;;0.60;0.30;;;32.00;21.50;;;;;;4829195;29;20145;-87
2021/05/29 11:29:53;;;;;;;2.28;0.40;;;32.10;19.80;;;;;;4822698;29;20070;-84
2021/05/29 11:32:52;;;;;;;4.57;0.82;;;32.30;21.70;;;;;;4817708;29;20068;-87
2021/05/29 11:35:25;;;;;;;0.60;0.32;;;33.30;21.20;;;;;;4818609;29;20080;-86
2021/05/29 11:38:03;;;;;;;0.95;0.40;;;33.80;19.30;;;;;;4831017;29;20046;-85
2021/05/29 11:40:45;;;;;;;0.95;0.30;;;34.20;19.40;;;;;;4814712;29;20125;-85
2021/05/29 11:43:13;;;;;;;0.70;0.45;;;33.90;18.70;;;;;;4824512;29;20077;-86
2021/05/29 11:45:45;;;;;;;0.68;0.40;;;33.30;18.10;;;;;;4825311;29;20425;-84
2021/05/29 11:48:14;;;;;;;0.52;0.35;;;33.90;19.10;;;;;;4826669;29;20337;-86
2021/05/29 11:51:08;;;;;;;0.63;0.40;;;34.00;20.50;;;;;;4828948;29;20101;-86
2021/05/29 11:53:45;;;;;;;1.92;0.60;;;34.70;20.00;;;;;;4818987;29;20080;-86
2021/05/29 11:56:14;;;;;;;2.00;0.90;;;35.60;18.90;;;;;;4833653;29;20263;-84
2021/05/29 11:58:44;;;;;;;4.07;0.93;;;35.40;19.20;;;;;;4816377;29;20062;-84
2021/05/29 12:01:18;;;;;;;0.98;0.40;;;35.00;18.90;;;;;;4806609;29;20113;-84
2021/05/29 12:03:50;;;;;;;0.80;0.50;;;34.80;17.30;;;;;;4833277;29;20128;-86
2021/05/29 12:06:47;;;;;;;2.22;0.65;;;34.50;16.40;;;;;;4804430;29;20058;-86
2021/05/29 12:09:17;;;;;;;2.30;0.50;;;34.40;17.70;;;;;;4830508;29;20444;-83
2021/05/29 12:11:50;;;;;;;2.10;0.80;;;35.70;17.70;;;;;;4833997;29;20065;-85
2021/05/29 12:14:21;;;;;;;1.42;0.75;;;36.30;18.70;;;;;;4825400;29;20065;-85
2021/05/29 12:16:52;;;;;;;2.38;0.77;;;35.80;17.40;;;;;;4830604;29;20057;-86
2021/05/29 12:19:33;;;;;;;1.52;0.70;;;33.60;20.80;;;;;;4816048;29;20393;-84
2021/05/29 12:22:02;;;;;;;3.45;1.00;;;34.20;18.80;;;;;;4832096;29;20058;-84
2021/05/29 12:24:40;;;;;;;2.05;0.77;;;34.80;18.90;;;;;;4810145;29;20161;-85
2021/05/29 12:27:10;;;;;;;2.45;0.80;;;31.80;20.70;;;;;;4830256;29;20102;-83
2021/05/29 12:29:38;;;;;;;1.00;0.40;;;32.80;21.70;;;;;;4832688;29;20281;-84
2021/05/29 12:32:06;;;;;;;2.22;0.77;;;33.70;18.10;;;;;;4816444;29;20061;-85
2021/05/29 12:34:34;;;;;;;1.45;0.60;;;34.80;18.50;;;;;;4835977;29;20376;-85
2021/05/29 12:37:09;;;;;;;0.90;0.40;;;35.80;17.50;;;;;;4818083;29;20054;-85
2021/05/29 12:39:48;;;;;;;1.00;0.60;;;35.00;17.00;;;;;;4832116;29;20055;-84
2021/05/29 12:42:24;;;;;;;1.23;0.47;;;35.10;18.80;;;;;;4808520;29;20081;-84
2021/05/29 12:44:53;;;;;;;1.70;0.70;;;35.80;17.50;;;;;;4830690;29;20066;-84
2021/05/29 12:47:22;;;;;;;1.42;0.50;;;34.70;17.70;;;;;;4801006;29;20061;-84
2021/05/29 12:49:52;;;;;;;;;;;34.60;17.20;;;;;;4830157;29;20543;-86
2021/05/29 12:52:25;;;;;;;2.28;0.60;;;35.20;17.70;;;;;;4831442;29;19921;-84
2021/05/29 12:54:52;;;;;;;1.35;0.60;;;36.40;17.00;;;;;;4833169;29;20228;-84
2021/05/29 12:57:23;;;;;;;0.65;0.47;;;36.00;17.00;;;;;;4800372;29;20086;-84
2021/05/29 12:59:51;;;;;;;2.75;1.35;;;36.60;17.50;;;;;;4818883;29;20077;-83
2021/05/29 13:07:24;;;;;;;1.98;0.65;;;35.50;16.80;;;;;;4825975;29;20076;-86
2021/05/29 13:08:48;;;;;;;4.15;0.73;;;35.20;18.00;;;;;;4813144;29;20766;-83
2021/05/29 13:11:30;;;;;;;4.80;0.70;;;36.30;16.10;;;;;;4828391;29;20058;-84
2021/05/29 13:14:05;;;;;;;0.77;0.50;;;35.40;18.70;;;;;;4835594;29;20132;-82
2021/05/29 13:16:50;;;;;;;1.35;0.50;;;35.40;18.10;;;;;;4814798;29;20123;-82
2021/05/29 13:19:18;;;;;;;1.30;0.45;;;35.00;19.10;;;;;;4831795;29;20058;-82
2021/05/29 13:21:58;;;;;;;2.08;0.52;;;36.10;19.00;;;;;;4815100;29;20121;-84
2021/05/29 13:24:42;;;;;;;1.20;0.60;;;37.30;17.10;;;;;;4833746;29;20306;-87
2021/05/29 13:27:20;;;;;;;1.83;0.63;;;37.00;17.30;;;;;;4835362;29;20264;-82
2021/05/29 13:29:48;;;;;;;2.08;0.47;;;33.40;19.80;;;;;;4835736;29;20070;-86
2021/05/29 13:32:18;;;;;;;1.52;0.80;;;31.00;22.80;;;;;;4829587;29;20288;-85
2021/05/29 13:34:48;;;;;;;1.58;0.68;;;32.20;21.60;;;;;;4834097;29;20130;-80
2021/05/29 13:37:19;;;;;;;1.42;0.55;;;33.00;21.00;;;;;;4818093;29;20122;-85
2021/05/29 13:39:50;;;;;;;1.90;0.60;;;33.90;18.50;;;;;;4833206;29;20125;-85
2021/05/29 13:42:20;;;;;;;;;;;34.40;19.60;;;;;;4826280;29;20420;-85
2021/05/29 13:44:50;;;;;;;2.40;0.70;;;34.80;18.20;;;;;;4832249;29;19929;-85
2021/05/29 13:47:17;;;;;;;1.85;0.70;;;35.80;18.40;;;;;;4832203;29;20058;-84
2021/05/29 13:49:47;;;;;;;1.13;0.52;;;36.50;17.20;;;;;;4836832;29;20065;-82
2021/05/29 13:52:16;;;;;;;2.42;0.73;;;36.20;16.70;;;;;;4815312;29;20114;-83
2021/05/29 13:54:43;;;;;;;3.33;0.70;;;32.50;20.30;;;;;;4826790;29;20353;-83
2021/05/29 13:57:12;;;;;;;2.05;0.60;;;29.50;23.80;;;;;;4832224;29;20046;-81
2021/05/29 13:59:42;;;;;;;1.70;0.70;;;27.30;24.80;;;;;;4832600;29;20061;-83
2021/05/29 14:02:11;;;;;;;2.83;0.82;;;26.00;27.10;;;;;;4822496;29;20054;-84
2021/05/29 14:04:39;;;;;;;1.52;0.60;;;27.40;26.30;;;;;;4832562;29;20050;-81
2021/05/29 14:07:09;;;;;;;2.58;0.73;;;29.50;25.10;;;;;;4834248;29;20443;-84
2021/05/29 14:09:38;;;;;;;2.05;0.68;;;31.30;21.70;;;;;;4825650;29;20058;-81
2021/05/29 14:12:07;;;;;;;1.52;0.60;;;32.00;20.10;;;;;;4818126;29;20042;-84
2021/05/29 14:14:35;;;;;;;3.13;1.42;;;33.10;19.30;;;;;;4831294;29;20062;-84
2021/05/29 14:17:04;;;;;;;2.53;0.82;;;34.20;18.30;;;;;;4815492;29;20075;-83
2021/05/29 14:19:31;;;;;;;;;;;34.70;17.00;;;;;;4829742;29;20069;-84
2021/05/29 14:21:59;;;;;;;2.15;0.90;;;34.80;17.80;;;;;;4822153;29;19920;-84
2021/05/29 14:24:26;;;;;;;1.35;0.70;;;34.70;16.70;;;;;;4822185;29;20082;-83
2021/05/29 14:26:57;;;;;;;2.30;0.60;;;34.60;16.60;;;;;;4828972;29;20046;-83
2021/05/29 14:29:25;;;;;;;2.30;0.73;;;35.30;16.20;;;;;;4806048;29;20535;-83
2021/05/29 14:31:52;;;;;;;3.50;0.70;;;36.10;16.10;;;;;;4826721;29;20345;-85
2021/05/29 14:34:19;;;;;;;2.95;0.98;;;36.60;16.20;;;;;;4826865;29;20073;-80
2021/05/29 14:36:46;;;;;;;3.30;0.80;;;34.20;17.70;;;;;;4825700;29;20065;-85
2021/05/29 14:39:13;;;;;;;1.15;0.60;;;30.80;20.60;;;;;;4828088;29;20046;-84
2021/05/29 14:41:40;;;;;;;2.65;0.88;;;31.90;20.70;;;;;;4813726;29;20054;-85
2021/05/29 14:44:11;;;;;;;2.05;0.80;;;33.00;19.50;;;;;;4831531;29;20104;-82
2021/05/29 14:46:38;;;;;;;1.80;0.47;;;33.10;19.40;;;;;;4815994;29;20058;-81
2021/05/29 14:49:06;;;;;;;2.00;0.80;;;33.50;17.40;;;;;;4830082;29;20241;-83
2021/05/29 14:51:35;;;;;;;1.42;0.70;;;34.20;19.50;;;;;;4809765;29;20050;-85
2021/05/29 14:54:05;;;;;;;1.98;0.73;;;34.50;18.20;;;;;;4805890;29;20050;-86
2021/05/29 14:56:34;;;;;;;0.57;0.38;;;34.90;17.50;;;;;;4822545;29;20065;-82
2021/05/29 14:59:03;;;;;;;1.85;0.55;;;34.50;18.30;;;;;;4822456;29;20058;-85
2021/05/29 15:01:33;;;;;;;2.90;0.52;;;34.50;18.80;;;;;;4811324;29;20292;-84
2021/05/29 15:04:01;;;;;;;2.83;0.82;;;34.70;17.30;;;;;;4815451;29;20058;-83
2021/05/29 15:06:28;;;;;;;1.20;0.60;;;34.70;18.50;;;;;;4801802;29;20054;-84
2021/05/29 15:08:55;;;;;;;0.88;0.50;;;34.80;17.00;;;;;;4809296;29;20062;-86
2021/05/29 15:11:23;;;;;;;0.90;0.50;;;34.30;17.70;;;;;;4831233;29;20226;-85
2021/05/29 15:13:51;;;;;;;1.73;0.60;;;34.80;17.80;;;;;;4831914;29;20394;-85
2021/05/29 15:16:18;;;;;;;1.88;0.85;;;34.40;18.60;;;;;;4799883;29;20352;-85
2021/05/29 15:18:46;;;;;;;2.72;0.47;;;34.20;18.20;;;;;;4817246;29;20058;-85
2021/05/29 15:21:14;;;;;;;0.98;0.60;;;34.60;17.90;;;;;;4833076;29;20046;-85
2021/05/29 15:23:46;;;;;;;3.22;0.60;;;34.90;17.70;;;;;;4812080;29;20058;-84
2021/05/29 15:26:13;;;;;;;1.63;1.08;;;34.90;17.80;;;;;;4787270;29;20066;-85
2021/05/29 15:28:41;;;;;;;1.17;0.60;;;35.30;17.00;;;;;;4834102;29;20072;-82
2021/05/29 15:31:09;;;;;;;2.72;0.70;;;35.40;17.30;;;;;;4834745;29;20334;-82
2021/05/29 15:33:36;;;;;;;1.27;0.73;;;35.10;17.40;;;;;;4834667;29;20042;-82
2021/05/29 15:36:04;;;;;;;1.02;0.50;;;35.60;15.80;;;;;;4809843;29;20075;-82
2021/05/29 15:38:31;;;;;;;2.28;0.90;;;35.50;16.30;;;;;;4829614;29;20054;-85
2021/05/29 15:40:59;;;;;;;3.78;0.50;;;35.70;16.70;;;;;;4832905;29;20100;-83
2021/05/29 15:43:28;;;;;;;1.23;0.60;;;35.00;17.70;;;;;;4813616;29;20061;-85
2021/05/29 15:45:56;;;;;;;1.27;0.50;;;34.20;18.40;;;;;;4801509;29;20054;-85
2021/05/29 15:48:23;;;;;;;1.88;0.73;;;33.60;17.50;;;;;;4830192;29;20365;-84
2021/05/29 15:51:02;;;;;;;1.15;0.70;;;33.40;18.70;;;;;;4816275;29;20485;-84
2021/05/29 15:53:32;;;;;;;;;;;33.20;18.80;;;;;;4807004;29;20337;-81
2021/05/29 15:55:59;;;;;;;1.63;0.50;;;33.50;17.70;;;;;;4825525;29;19929;-83
2021/05/29 15:58:27;;;;;;;1.10;0.40;;;34.10;18.70;;;;;;4831026;29;20264;-83
2021/05/29 16:00:55;;;;;;;1.35;0.40;;;34.50;18.50;;;;;;4828559;29;20054;-80
2021/05/29 16:03:27;;;;;;;1.48;0.55;;;34.90;17.20;;;;;;4827754;29;20066;-82
2021/05/29 16:05:54;;;;;;;1.30;0.40;;;34.90;17.80;;;;;;4815334;29;20352;-84
2021/05/29 16:08:21;;;;;;;1.52;0.70;;;33.70;17.80;;;;;;4830335;29;20287;-80
2021/05/29 16:10:49;;;;;;;2.00;0.50;;;31.00;20.70;;;;;;4830408;29;20114;-83
2021/05/29 16:16:05;;;;;;;1.02;0.43;;;30.90;20.20;;;;;;4833032;29;20060;-87
2021/05/29 16:18:38;;;;;;;1.40;0.50;;;31.60;20.40;;;;;;4816683;29;20058;-85
2021/05/29 16:21:10;;;;;;;3.33;0.60;;;31.80;20.60;;;;;;4833657;29;20058;-86
2021/05/29 16:23:38;;;;;;;1.00;0.60;;;31.80;20.00;;;;;;4824741;29;20085;-86
2021/05/29 16:26:09;;;;;;;0.82;0.52;;;31.60;19.70;;;;;;4803176;29;20058;-83
2021/05/29 16:28:36;;;;;;;0.70;0.45;;;31.40;21.00;;;;;;4832731;29;20065;-86
2021/05/29 16:31:06;;;;;;;0.98;0.50;;;31.70;19.20;;;;;;4825565;29;20115;-85
2021/05/29 16:33:41;;;;;;;2.70;1.10;;;32.00;19.80;;;;;;4830121;29;20058;-86
2021/05/29 16:36:14;;;;;;;0.88;0.50;;;31.80;19.20;;;;;;4816144;29;20054;-85
2021/05/29 16:38:46;;;;;;;1.13;0.60;;;32.40;17.90;;;;;;4832566;29;20065;-83
2021/05/29 16:41:15;;;;;;;2.05;0.60;;;32.40;19.50;;;;;;4825351;29;20046;-84
2021/05/29 16:43:45;;;;;;;1.58;0.65;;;32.20;17.60;;;;;;4827391;29;20062;-85
2021/05/29 16:46:17;;;;;;;1.15;0.65;;;32.00;18.10;;;;;;4820110;29;20068;-87
2021/05/29 16:48:45;;;;;;;1.55;0.90;;;32.10;17.40;;;;;;4830124;29;20053;-82
2021/05/29 16:51:16;;;;;;;0.65;0.55;;;30.90;19.30;;;;;;4799434;29;20239;-83
2021/05/29 16:53:46;;;;;;;1.98;0.50;;;31.00;18.90;;;;;;4819013;29;20123;-85
2021/05/29 16:56:16;;;;;;;2.88;0.85;;;30.60;18.30;;;;;;4831724;29;20087;-86
2021/05/29 16:58:47;;;;;;;1.52;0.80;;;31.30;18.20;;;;;;4814306;29;20051;-85
2021/05/29 17:01:21;;;;;;;1.63;0.60;;;31.40;19.00;;;;;;4824248;29;20379;-86
2021/05/29 17:03:49;;;;;;;1.42;0.65;;;30.90;19.50;;;;;;4833777;29;20078;-86
2021/05/29 17:06:17;;;;;;;3.42;0.82;;;30.30;20.70;;;;;;4838305;29;20098;-86
2021/05/29 17:08:46;;;;;;;2.07;0.87;;;30.40;20.10;;;;;;4819944;29;20054;-83
2021/05/29 17:11:16;;;;;;;1.37;0.90;;;29.50;20.60;;;;;;4837998;29;20062;-84
2021/05/29 17:13:45;;;;;;;2.83;0.73;;;29.10;22.80;;;;;;4835272;29;20337;-84
2021/05/29 17:16:15;;;;;;;2.63;0.88;;;29.40;21.10;;;;;;4824023;29;20062;-85
2021/05/29 17:18:47;;;;;;;4.45;0.70;;;29.60;21.00;;;;;;4817879;29;20073;-83
2021/05/29 17:21:15;;;;;;;1.80;0.68;;;28.70;21.30;;;;;;4818947;29;20061;-84
2021/05/29 17:23:46;;;;;;;2.15;0.75;;;26.80;23.70;;;;;;4822412;29;20256;-84
2021/05/29 17:26:15;;;;;;;2.28;0.80;;;25.20;25.30;;;;;;4823129;29;20210;-84
2021/05/29 17:28:42;;;;;;;2.60;0.95;;;24.20;27.10;;;;;;4837902;29;20071;-83
2021/05/29 17:31:10;;;;;;;1.30;0.77;;;25.70;25.80;;;;;;4839152;29;20089;-83
2021/05/29 17:33:38;;;;;;;1.17;0.70;;;27.00;24.80;;;;;;4820729;29;20070;-84
2021/05/29 17:36:05;;;;;;;2.38;0.90;;;26.50;25.90;;;;;;4827314;29;20054;-82
2021/05/29 17:38:32;;;;;;;2.40;1.00;;;27.00;24.40;;;;;;4808327;29;20054;-84
2021/05/29 17:41:03;;;;;;;2.70;0.90;;;27.30;24.40;;;;;;4821536;29;20276;-83
2021/05/29 17:43:31;;;;;;;1.83;1.00;;;27.70;23.70;;;;;;4824080;29;20087;-83
2021/05/29 17:45:59;;;;;;;1.52;0.80;;;27.70;23.50;;;;;;4824463;29;20062;-81
2021/05/29 17:48:26;;;;;;;1.08;0.82;;;27.70;23.80;;;;;;4833627;29;20058;-81
2021/05/29 17:50:55;;;;;;;1.35;0.70;;;28.10;23.50;;;;;;4841349;29;20091;-84
2021/05/29 17:53:24;;;;;;;1.95;0.77;;;28.40;23.70;;;;;;4810087;29;20062;-83
2021/05/29 17:55:53;;;;;;;2.42;0.88;;;28.50;23.20;;;;;;4819490;29;20062;-81
2021/05/29 18:01:13;;;;;;;2.92;0.90;;;27.80;22.90;;;;;;4827593;29;20058;-83
2021/05/29 18:03:41;;;;;;;2.35;0.80;;;26.70;24.20;;;;;;4840817;29;20055;-82
2021/05/29 18:06:11;;;;;;;;;;;25.30;25.70;;;;;;4812621;29;20111;-83
2021/05/29 18:08:38;;;;;;;1.80;0.90;;;23.60;28.60;;;;;;4825019;29;19955;-83
2021/05/29 18:11:05;;;;;;;2.35;1.10;;;22.60;29.60;;;;;;4825069;29;20074;-83
2021/05/29 18:13:40;;;;;;;2.08;0.65;;;22.10;30.80;;;;;;4809128;29;20046;-83
2021/05/29 18:16:08;;;;;;;1.92;0.90;;;21.60;30.80;;;;;;4813711;29;20126;-85
2021/05/29 18:18:53;;;;;;;1.65;0.82;;;21.00;31.50;;;;;;4809759;29;20058;-84
2021/05/29 18:21:21;;;;;;;1.70;1.02;;;20.60;32.40;;;;;;4809078;29;20353;-86
2021/05/29 18:23:48;;;;;;;3.80;1.17;;;20.10;33.00;;;;;;4815536;29;20051;-85
2021/05/29 18:26:17;;;;;;;2.25;0.93;;;19.70;34.10;;;;;;4837110;29;20413;-83
2021/05/29 18:28:49;;;;;;;2.50;1.02;;;19.50;35.10;;;;;;4837780;29;20130;-82
2021/05/29 18:31:16;;;;;;;1.98;1.02;;;19.20;35.00;;;;;;4837290;29;20343;-85
2021/05/29 18:33:44;;;;;;;2.88;1.30;;;19.10;35.20;;;;;;4812978;29;20785;-84
2021/05/29 18:36:17;;;;;;;3.40;1.23;;;18.90;35.60;;;;;;4822491;29;20261;-85
2021/05/29 18:41:50;;;;;;;3.83;1.27;;;18.60;38.00;;;;;;4819198;29;20111;-85
2021/05/29 18:44:19;;;;;;;4.28;1.60;;;18.60;37.40;;;;;;4793087;29;20058;-85
2021/05/29 18:46:48;;;;;;;3.35;1.27;;;18.50;37.80;;;;;;4828062;29;20058;-83
2021/05/29 18:49:16;;;;;;;1.70;0.93;;;18.30;39.10;;;;;;4823879;29;20081;-79
2021/05/29 18:51:48;;;;;;;3.55;0.90;;;18.10;39.90;;;;;;4797615;29;20081;-83
2021/05/29 18:54:18;;;;;;;2.75;1.20;;;18.00;41.20;;;;;;4829735;29;20087;-83
2021/05/29 18:56:53;;;;;;;5.40;1.00;;;17.80;40.90;;;;;;4830730;29;20080;-85
2021/05/29 18:59:30;;;;;;;1.88;0.98;;;17.70;42.10;;;;;;4807841;29;20057;-83
2021/05/29 19:02:29;;;;;;;3.63;1.00;;;17.60;41.70;;;;;;4817062;29;20083;-84
2021/05/29 19:05:04;;;;;;;4.97;1.25;;;17.50;42.30;;;;;;4832986;29;20073;-87
2021/05/29 19:07:39;;;;;;;6.60;2.05;;;17.30;42.90;;;;;;4822343;29;20062;-85
2021/05/29 19:10:17;;;;;;;4.18;1.27;;;17.20;44.20;;;;;;4807063;29;20078;-84
2021/05/29 19:12:45;;;;;;;1.48;0.88;;;17.00;44.00;;;;;;4834462;29;20046;-84
2021/05/29 19:15:17;;;;;;;7.05;2.15;;;16.80;44.20;;;;;;4839463;29;20056;-82
2021/05/29 19:17:49;;;;;;;7.15;1.20;;;16.70;44.90;;;;;;4838539;29;20129;-83
2021/05/29 19:20:23;;;;;;;4.22;1.50;;;16.60;45.40;;;;;;4819842;29;20245;-85
2021/05/29 19:22:56;;;;;;;4.68;1.77;;;16.50;45.60;;;;;;4813175;29;20090;-85
2021/05/29 19:25:49;;;;;;;4.57;1.90;;;16.40;45.60;;;;;;4834926;29;20066;-85
2021/05/29 19:28:19;;;;;;;5.32;1.33;;;16.30;46.80;;;;;;4820987;29;20050;-84
2021/05/29 19:30:48;;;;;;;3.03;1.30;;;16.20;46.80;;;;;;4807134;29;20050;-83
2021/05/29 19:39:09;;;;;;;4.32;1.30;;;15.70;48.10;;;;;;4831033;29;20058;-85
2021/05/29 19:41:44;;;;;;;3.05;1.52;;;15.60;48.90;;;;;;4838621;29;20102;-84
2021/05/29 19:44:21;;;;;;;2.78;1.10;;;15.30;49.80;;;;;;4837334;29;20058;-83
2021/05/29 20:23:53;;;;;;;2.50;1.35;;;13.20;62.90;;;;;;4825999;29;20050;-86
2021/05/29 20:26:22;;;;;;;2.92;1.52;;;13.10;63.90;;;;;;4794916;29;20079;-85
2021/05/29 20:28:53;;;;;;;3.10;1.42;;;13.10;63.90;;;;;;4826275;29;20047;-86
2021/05/29 20:31:27;;;;;;;3.10;1.40;;;13.00;64.60;;;;;;4800499;29;20401;-86
2021/05/29 20:34:58;;;;;;;3.47;1.80;;;12.90;65.40;;;;;;4831161;29;20129;-84
2021/05/29 20:36:56;;;;;;;3.53;1.33;;;12.80;65.70;;;;;;4831470;29;20058;-85
2021/05/29 20:39:28;;;;;;;4.30;1.30;;;12.60;66.50;;;;;;4810399;29;20051;-84
2021/05/29 20:42:05;;;;;;;5.28;1.50;;;12.60;66.90;;;;;;4814697;29;20049;-86
2021/05/29 20:44:32;;;;;;;1.90;1.08;;;12.50;67.10;;;;;;4817724;29;20054;-84
2021/05/29 20:47:11;;;;;;;2.40;1.15;;;12.40;67.80;;;;;;4814165;29;20089;-86
2021/05/29 20:49:45;;;;;;;3.33;1.40;;;12.30;67.70;;;;;;4817681;29;20077;-85
2021/05/29 20:52:15;;;;;;;4.57;1.67;;;12.20;68.40;;;;;;4798244;29;20039;-85
2021/05/29 20:54:44;;;;;;;4.63;1.52;;;12.20;69.00;;;;;;4830423;29;20055;-83
2021/05/29 20:57:15;;;;;;;2.95;1.30;;;12.10;68.00;;;;;;4817796;29;20063;-85
2021/05/29 20:59:42;;;;;;;2.95;1.15;;;12.00;69.20;;;;;;4825233;29;20054;-83
2021/05/29 21:02:10;;;;;;;4.75;1.50;;;11.90;69.40;;;;;;4809725;29;20071;-84
2021/05/29 21:04:40;;;;;;;2.88;1.35;;;11.90;69.20;;;;;;4827371;29;20058;-85
2021/05/29 21:07:09;;;;;;;6.65;2.72;;;11.80;69.40;;;;;;4840713;29;20084;-84
2021/05/29 21:09:40;;;;;;;7.22;3.20;;;11.70;70.90;;;;;;4836229;29;20069;-85
2021/05/29 21:12:16;;;;;;;9.70;4.30;;;11.60;71.30;;;;;;4839396;29;20062;-84
2021/05/29 21:14:50;;;;;;;18.55;8.48;;;11.50;71.80;;;;;;4824542;29;20054;-85
2021/05/29 21:22:56;;;;;;;8.50;3.08;;;11.40;72.80;;;;;;4831014;29;20062;-86
2021/05/29 21:25:25;;;;;;;9.82;3.03;;;11.30;72.90;;;;;;4847414;29;20054;-84
2021/05/29 21:27:52;;;;;;;7.82;3.33;;;11.20;73.30;;;;;;4823485;29;20057;-85
2021/05/29 21:30:23;;;;;;;10.25;4.90;;;11.20;73.40;;;;;;4806535;29;20054;-86
2021/05/29 21:32:51;;;;;;;;;;;11.10;73.50;;;;;;4834593;29;20264;-84
2021/05/29 21:35:18;;;;;;;9.38;3.40;;;11.10;72.90;;;;;;4817314;29;19920;-81
2021/05/29 21:37:45;;;;;;;17.13;5.00;;;11.10;73.60;;;;;;4805952;29;20069;-86
2021/05/29 21:40:15;;;;;;;18.33;7.85;;;11.00;73.70;;;;;;4815716;29;20057;-84
2021/05/29 21:42:45;;;;;;;10.93;3.63;;;11.00;74.00;;;;;;4816162;29;20050;-83
2021/05/29 21:50:42;;;;;;;4.70;1.40;;;10.90;75.20;;;;;;4823146;29;20278;-86
2021/05/29 21:53:12;;;;;;;4.28;1.83;;;10.70;75.50;;;;;;4802996;29;20080;-85
2021/05/29 21:55:39;;;;;;;6.03;1.77;;;10.70;75.60;;;;;;4836214;29;20050;-84
2021/05/29 21:58:07;;;;;;;4.03;1.85;;;10.70;75.40;;;;;;4805909;29;20315;-84
2021/05/29 22:00:44;;;;;;;4.35;1.95;;;10.60;75.50;;;;;;4831278;29;20309;-83
2021/05/29 22:03:13;;;;;;;7.32;2.13;;;10.60;75.40;;;;;;4822546;29;20069;-85
2021/05/29 22:05:46;;;;;;;3.97;1.92;;;10.60;75.70;;;;;;4812751;29;20133;-84
2021/05/29 22:08:16;;;;;;;4.00;1.58;;;10.50;76.30;;;;;;4829002;29;20058;-84
2021/05/29 22:10:52;;;;;;;4.43;1.77;;;10.50;76.60;;;;;;4822907;29;20073;-83
2021/05/29 22:13:28;;;;;;;3.72;1.48;;;10.40;76.30;;;;;;4833613;29;20412;-84
2021/05/29 22:18:48;;;;;;;3.72;1.73;;;10.30;77.50;;;;;;4835076;29;20070;-84
2021/05/29 22:21:24;;;;;;;4.53;2.20;;;10.20;77.80;;;;;;4835610;29;20062;-82